createdAt,value
2022-10-22T00:01:12.767Z,67.79
2022-10-22T00:03:41.723Z,67.08
2022-10-22T00:06:09.933Z,67.25
2022-10-22T00:08:38.398Z,67.49
2022-10-22T00:11:15.014Z,67.99
2022-10-22T00:13:43.095Z,68.07
2022-10-22T00:16:11.235Z,68.70
2022-10-22T00:18:40.071Z,68.23
2022-10-22T00:21:08.708Z,68.08
2022-10-22T00:23:36.621Z,68.19
2022-10-22T00:26:04.606Z,68.45
2022-10-22T00:28:32.509Z,68.56
2022-10-22T00:31:01.301Z,68.59
2022-10-22T00:33:30.569Z,68.17
2022-10-22T00:35:59.087Z,68.63
2022-10-22T00:38:27.051Z,68.34
2022-10-22T00:40:55.775Z,67.14
2022-10-22T00:43:24.026Z,67.71
2022-10-22T00:45:51.905Z,68.14
2022-10-22T00:48:25.794Z,68.01
2022-10-22T00:50:55.815Z,67.87
2022-10-22T00:53:28.971Z,68.07
2022-10-22T00:55:57.272Z,67.95
2022-10-22T00:58:29.421Z,68.02
2022-10-22T01:00:58.122Z,68.11
2022-10-22T01:03:26.301Z,67.69
2022-10-22T01:05:59.568Z,67.67
2022-10-22T01:08:34.083Z,67.57
2022-10-22T01:11:07.822Z,67.29
2022-10-22T01:13:46.140Z,67.25
2022-10-22T01:16:37.764Z,66.92
2022-10-22T01:19:08.394Z,66.86
2022-10-22T01:22:01.253Z,66.59
2022-10-22T01:24:39.760Z,66.65
2022-10-22T01:27:26.575Z,66.82
2022-10-22T01:30:05.709Z,66.84
2022-10-22T01:32:41.659Z,66.83
2022-10-22T01:35:13.764Z,66.63
2022-10-22T01:37:56.410Z,67.00
2022-10-22T01:40:26.461Z,67.10
2022-10-22T01:43:03.048Z,66.83
2022-10-22T01:45:35.713Z,66.73
2022-10-22T01:48:33.170Z,66.77
2022-10-22T01:51:13.211Z,66.90
2022-10-22T01:53:52.640Z,67.32
2022-10-22T01:56:30.780Z,66.84
2022-10-22T01:59:23.722Z,66.89
2022-10-22T02:02:14.021Z,66.97
2022-10-22T02:04:49.479Z,67.19
2022-10-22T02:07:23.067Z,67.32
2022-10-22T02:09:54.307Z,67.46
2022-10-22T02:12:25.051Z,67.78
2022-10-22T02:14:55.782Z,67.87
2022-10-22T02:17:27.844Z,68.00
2022-10-22T02:20:25.718Z,68.11
2022-10-22T02:22:53.842Z,68.57
2022-10-22T02:25:23.812Z,68.02
2022-10-22T02:28:03.048Z,68.57
2022-10-22T02:30:34.082Z,68.35
2022-10-22T02:33:32.052Z,68.19
2022-10-22T02:36:02.579Z,68.27
2022-10-22T02:38:32.219Z,68.40
2022-10-22T02:41:00.569Z,68.55
2022-10-22T02:43:29.662Z,68.96
2022-10-22T02:45:57.733Z,68.61
2022-10-22T02:48:26.128Z,68.74
2022-10-22T02:50:54.082Z,68.84
2022-10-22T02:53:22.161Z,69.04
2022-10-22T02:55:50.126Z,68.97
2022-10-22T02:58:18.233Z,68.48
2022-10-22T03:00:46.181Z,67.71
2022-10-22T03:03:14.052Z,67.42
2022-10-22T03:05:41.870Z,67.72
2022-10-22T03:08:09.765Z,67.75
2022-10-22T03:10:37.741Z,67.31
2022-10-22T03:13:05.813Z,67.79
2022-10-22T03:15:33.641Z,68.65
2022-10-22T03:18:02.158Z,68.62
2022-10-22T03:20:30.024Z,68.85
2022-10-22T03:22:58.299Z,68.63
2022-10-22T03:25:28.115Z,69.01
2022-10-22T03:28:02.740Z,69.62
2022-10-22T03:30:31.119Z,69.84
2022-10-22T03:32:59.088Z,69.78
2022-10-22T03:35:27.379Z,69.80
2022-10-22T03:37:55.512Z,69.53
2022-10-22T03:40:23.510Z,69.38
2022-10-22T03:42:51.475Z,68.91
2022-10-22T03:45:19.446Z,69.28
2022-10-22T03:47:47.415Z,69.31
2022-10-22T03:50:15.402Z,69.54
2022-10-22T03:52:43.353Z,69.32
2022-10-22T03:55:11.324Z,69.28
2022-10-22T03:57:39.491Z,68.93
2022-10-22T04:00:09.207Z,68.99
2022-10-22T04:02:38.720Z,69.04
2022-10-22T04:05:07.453Z,68.55
2022-10-22T04:07:35.780Z,68.98
2022-10-22T04:10:04.155Z,69.14
2022-10-22T04:12:31.997Z,69.48
2022-10-22T04:14:59.894Z,69.36
2022-10-22T04:17:34.607Z,69.28
2022-10-22T04:20:04.534Z,68.76
2022-10-22T04:22:36.393Z,67.97
2022-10-22T04:25:05.489Z,67.09
2022-10-22T04:27:34.148Z,66.46
2022-10-22T04:30:03.793Z,66.70
2022-10-22T04:32:31.752Z,66.69
2022-10-22T04:34:59.828Z,66.88
2022-10-22T04:37:27.824Z,65.78
2022-10-22T04:39:58.046Z,65.27
2022-10-22T04:42:26.468Z,64.96
2022-10-22T04:44:54.285Z,64.86
2022-10-22T04:47:22.238Z,64.20
2022-10-22T04:49:50.202Z,63.78
2022-10-22T04:52:18.283Z,64.19
2022-10-22T04:54:47.372Z,64.60
2022-10-22T04:57:15.646Z,64.55
2022-10-22T04:59:43.621Z,64.42
2022-10-22T05:02:11.505Z,64.95
2022-10-22T05:04:39.452Z,64.90
2022-10-22T05:07:07.422Z,64.49
2022-10-22T05:09:35.494Z,65.22
2022-10-22T05:12:03.569Z,65.48
2022-10-22T05:14:31.639Z,65.23
2022-10-22T05:17:00.016Z,64.64
2022-10-22T05:19:30.881Z,65.07
2022-10-22T05:22:00.768Z,65.73
2022-10-22T05:24:30.377Z,65.41
2022-10-22T05:27:00.297Z,65.84
2022-10-22T05:29:28.317Z,65.97
2022-10-22T05:31:56.438Z,65.13
2022-10-22T05:34:24.408Z,65.52
2022-10-22T05:36:52.373Z,65.58
2022-10-22T05:39:20.459Z,65.74
2022-10-22T05:41:48.418Z,66.01
2022-10-22T05:44:16.521Z,65.73
2022-10-22T05:46:44.663Z,65.19
2022-10-22T05:49:15.085Z,65.64
2022-10-22T05:51:43.063Z,65.70
2022-10-22T05:54:20.153Z,65.36
2022-10-22T05:56:48.826Z,65.80
2022-10-22T05:59:16.804Z,65.61
2022-10-22T06:01:44.800Z,65.18
2022-10-22T06:04:13.719Z,64.55
2022-10-22T06:06:47.604Z,64.25
2022-10-22T06:09:24.095Z,64.13
2022-10-22T06:11:52.744Z,63.59
2022-10-22T06:14:21.509Z,63.59
2022-10-22T06:16:50.502Z,63.34
2022-10-22T06:19:21.094Z,63.30
2022-10-22T06:21:49.309Z,62.72
2022-10-22T06:24:17.276Z,61.98
2022-10-22T06:26:50.602Z,61.37
2022-10-22T06:29:19.263Z,60.66
2022-10-22T06:31:47.229Z,60.38
2022-10-22T06:34:18.824Z,60.22
2022-10-22T06:36:47.570Z,59.51
2022-10-22T06:39:17.594Z,59.17
2022-10-22T06:41:46.083Z,58.77
2022-10-22T06:44:19.280Z,56.52
2022-10-22T06:46:52.161Z,56.74
2022-10-22T06:49:21.345Z,57.21
2022-10-22T06:51:53.825Z,56.30
2022-10-22T06:54:23.017Z,55.50
2022-10-22T06:56:51.097Z,55.01
2022-10-22T06:59:19.268Z,54.84
2022-10-22T07:01:47.295Z,53.93
2022-10-22T07:04:15.842Z,52.82
2022-10-22T07:06:43.825Z,52.81
2022-10-22T07:09:11.887Z,52.83
2022-10-22T07:11:43.070Z,51.50
2022-10-22T07:14:12.096Z,51.43
2022-10-22T07:16:43.159Z,51.11
2022-10-22T07:19:11.732Z,51.01
2022-10-22T07:21:40.102Z,50.23
2022-10-22T07:24:08.418Z,47.97
2022-10-22T07:26:37.069Z,49.30
2022-10-22T07:29:05.442Z,48.67
2022-10-22T07:31:33.720Z,46.08
2022-10-22T07:34:01.674Z,46.10
2022-10-22T07:36:33.163Z,45.95
2022-10-22T07:39:01.731Z,47.13
2022-10-22T07:41:30.929Z,45.12
2022-10-22T07:43:59.611Z,44.63
2022-10-22T07:46:27.988Z,45.69
2022-10-22T07:48:56.062Z,40.80
2022-10-22T07:51:24.131Z,41.50
2022-10-22T07:53:52.053Z,40.93
2022-10-22T07:56:21.001Z,40.89
2022-10-22T07:58:49.120Z,40.88
2022-10-22T08:01:17.307Z,40.30
2022-10-22T08:03:45.310Z,40.80
2022-10-22T08:06:15.049Z,41.15
2022-10-22T08:08:45.818Z,40.14
2022-10-22T08:11:14.036Z,40.35
2022-10-22T08:13:45.345Z,39.60
2022-10-22T08:16:14.600Z,39.57
2022-10-22T08:18:42.861Z,39.62
2022-10-22T08:21:14.307Z,39.11
2022-10-22T08:23:42.383Z,39.89
2022-10-22T08:26:11.532Z,40.12
2022-10-22T08:28:39.656Z,39.28
2022-10-22T08:31:08.455Z,39.03
2022-10-22T08:33:39.090Z,38.67
2022-10-22T08:36:07.657Z,39.50
2022-10-22T08:38:35.840Z,39.04
2022-10-22T08:41:12.092Z,40.32
2022-10-22T08:43:58.677Z,39.97
2022-10-22T08:46:45.521Z,40.44
2022-10-22T08:49:21.676Z,40.25
2022-10-22T08:51:50.150Z,38.45
2022-10-22T08:54:28.545Z,40.01
2022-10-22T08:57:09.145Z,38.96
2022-10-22T09:00:13.151Z,38.47
2022-10-22T09:03:13.479Z,39.33
2022-10-22T09:05:53.322Z,38.97
2022-10-22T09:08:22.724Z,36.50
2022-10-22T09:11:03.088Z,35.71
2022-10-22T09:13:31.053Z,36.83
2022-10-22T09:16:19.612Z,34.93
2022-10-22T09:19:03.446Z,34.08
2022-10-22T09:21:56.962Z,33.59
2022-10-22T09:24:36.897Z,32.12
2022-10-22T09:27:17.940Z,31.56
2022-10-22T09:29:47.862Z,31.01
2022-10-22T09:32:17.546Z,30.38
2022-10-22T09:34:48.019Z,31.02
2022-10-22T09:37:19.557Z,28.82
2022-10-22T09:39:52.340Z,29.38
2022-10-22T09:42:21.738Z,28.55
2022-10-22T09:44:59.533Z,27.64
2022-10-22T09:47:42.807Z,27.43
2022-10-22T09:50:28.859Z,27.02
2022-10-22T09:53:05.739Z,27.04
2022-10-22T09:55:33.704Z,26.12
2022-10-22T09:58:02.098Z,26.27
2022-10-22T10:00:30.882Z,25.71
2022-10-22T10:03:00.293Z,25.77
2022-10-22T10:05:32.978Z,26.21
2022-10-22T10:08:14.437Z,26.38
2022-10-22T10:10:46.811Z,26.43
2022-10-22T10:13:36.191Z,26.70
2022-10-22T10:16:26.485Z,27.03
2022-10-22T10:18:54.553Z,27.17
2022-10-22T10:22:00.304Z,25.92
2022-10-22T10:24:53.121Z,25.99
2022-10-22T10:27:30.758Z,24.97
2022-10-22T10:30:22.171Z,24.39
2022-10-22T10:33:05.215Z,25.29
2022-10-22T10:35:57.164Z,24.41
2022-10-22T10:38:28.751Z,23.92
2022-10-22T10:41:21.638Z,24.43
2022-10-22T10:44:14.384Z,24.93
2022-10-22T10:47:17.030Z,23.93
2022-10-22T10:49:45.041Z,24.05
2022-10-22T10:52:28.372Z,24.51
2022-10-22T10:55:27.467Z,24.19
2022-10-22T10:58:27.894Z,24.23
2022-10-22T11:01:00.287Z,24.21
2022-10-22T11:03:37.338Z,23.82
2022-10-22T11:06:16.259Z,22.35
2022-10-22T11:08:55.172Z,22.08
2022-10-22T11:11:35.469Z,21.89
2022-10-22T11:14:15.414Z,21.69
2022-10-22T11:16:51.312Z,20.19
2022-10-22T11:19:50.898Z,20.22
2022-10-22T11:22:41.981Z,20.07
2022-10-22T11:25:12.553Z,20.01
2022-10-22T11:28:11.498Z,20.91
2022-10-22T11:30:43.892Z,21.14
2022-10-22T11:33:19.531Z,21.53
2022-10-22T11:35:50.427Z,22.39
2022-10-22T11:38:23.804Z,22.57
2022-10-22T11:41:03.825Z,22.44
2022-10-22T11:43:55.145Z,22.24
2022-10-22T11:46:23.022Z,23.49
2022-10-22T11:49:09.616Z,23.20
2022-10-22T11:51:40.554Z,23.24
2022-10-22T11:54:42.959Z,22.96
2022-10-22T11:57:16.611Z,23.11
2022-10-22T11:59:47.269Z,23.05
2022-10-22T12:02:45.313Z,23.54
2022-10-22T12:05:22.634Z,22.57
2022-10-22T12:08:15.758Z,23.02
2022-10-22T12:11:06.709Z,23.60
2022-10-22T12:13:52.987Z,24.09
2022-10-22T12:16:32.388Z,24.10
2022-10-22T12:19:16.998Z,24.76
2022-10-22T12:21:52.032Z,25.07
2022-10-22T12:24:23.779Z,25.85
2022-10-22T12:26:52.873Z,25.86
2022-10-22T12:29:26.846Z,25.22
2022-10-22T12:31:55.997Z,25.20
2022-10-22T12:34:25.400Z,25.03
2022-10-22T12:36:54.591Z,25.50
2022-10-22T12:39:26.772Z,26.39
2022-10-22T12:41:55.553Z,26.54
2022-10-22T12:44:23.519Z,27.11
2022-10-22T12:46:55.998Z,27.81
2022-10-22T12:49:35.224Z,28.28
2022-10-22T12:52:14.158Z,29.31
2022-10-22T12:54:42.533Z,29.89
2022-10-22T12:57:14.703Z,30.88
2022-10-22T12:59:49.619Z,31.08
2022-10-22T13:02:24.754Z,32.47
2022-10-22T13:05:17.093Z,32.96
2022-10-22T13:07:53.462Z,32.67
2022-10-22T13:10:27.917Z,33.23
2022-10-22T13:12:58.225Z,32.69
2022-10-22T13:15:32.236Z,33.35
2022-10-22T13:18:20.168Z,34.08
2022-10-22T13:20:54.383Z,34.39
2022-10-22T13:23:25.690Z,34.89
2022-10-22T13:26:18.381Z,34.56
2022-10-22T13:28:58.267Z,34.77
2022-10-22T13:31:29.821Z,35.17
2022-10-22T13:34:08.436Z,35.01
2022-10-22T13:36:39.035Z,36.64
2022-10-22T13:39:12.945Z,37.50
2022-10-22T13:41:40.925Z,37.92
2022-10-22T13:44:08.985Z,38.54
2022-10-22T13:46:43.085Z,38.88
2022-10-22T13:49:15.728Z,38.95
2022-10-22T13:51:44.576Z,39.96
2022-10-22T13:54:22.690Z,40.81
2022-10-22T13:56:50.845Z,42.16
2022-10-22T13:59:21.312Z,41.76
2022-10-22T14:01:52.313Z,41.26
2022-10-22T14:04:20.288Z,41.76
2022-10-22T14:06:48.351Z,42.63
2022-10-22T14:09:16.627Z,42.99
2022-10-22T14:11:44.706Z,43.43
2022-10-22T14:14:14.442Z,44.27
2022-10-22T14:16:42.589Z,44.36
2022-10-22T14:19:18.443Z,44.34
2022-10-22T14:21:47.238Z,44.93
2022-10-22T14:24:15.509Z,45.24
2022-10-22T14:26:43.378Z,44.95
2022-10-22T14:29:11.815Z,45.49
2022-10-22T14:31:43.845Z,46.31
2022-10-22T14:34:15.377Z,45.50
2022-10-22T14:36:44.122Z,46.60
2022-10-22T14:39:13.372Z,47.55
2022-10-22T14:41:41.948Z,46.92
2022-10-22T14:44:14.314Z,47.95
2022-10-22T14:46:44.201Z,48.00
2022-10-22T14:49:12.928Z,47.68
2022-10-22T14:51:41.174Z,47.37
2022-10-22T14:54:09.291Z,47.05
2022-10-22T14:56:38.200Z,48.32
2022-10-22T14:59:06.332Z,49.74
2022-10-22T15:01:34.247Z,49.20
2022-10-22T15:04:02.062Z,49.49
2022-10-22T15:06:30.038Z,49.62
2022-10-22T15:08:58.043Z,49.59
2022-10-22T15:11:27.008Z,49.32
2022-10-22T15:13:55.078Z,49.81
2022-10-22T15:16:23.148Z,49.53
2022-10-22T15:18:53.165Z,49.08
2022-10-22T15:21:22.871Z,50.45
2022-10-22T15:23:50.739Z,51.21
2022-10-22T15:26:18.913Z,51.43
2022-10-22T15:28:47.089Z,53.32
2022-10-22T15:31:16.014Z,54.12
2022-10-22T15:33:44.022Z,53.23
2022-10-22T15:36:16.059Z,53.68
2022-10-22T15:38:44.142Z,54.19
2022-10-22T15:41:13.657Z,54.22
2022-10-22T15:43:42.291Z,54.87
2022-10-22T15:46:14.273Z,55.40
2022-10-22T15:48:42.629Z,56.01
2022-10-22T15:51:15.941Z,56.56
2022-10-22T15:53:44.313Z,56.37
2022-10-22T15:56:12.260Z,55.36
2022-10-22T15:58:40.237Z,54.87
2022-10-22T16:01:11.823Z,54.18
2022-10-22T16:03:40.798Z,54.70
2022-10-22T16:06:09.674Z,55.90
2022-10-22T16:08:38.312Z,56.05
2022-10-22T16:11:06.428Z,54.29
2022-10-22T16:13:36.967Z,56.04
2022-10-22T16:16:08.140Z,57.46
2022-10-22T16:18:36.377Z,57.98
2022-10-22T16:21:04.452Z,58.72
2022-10-22T16:23:34.268Z,58.62
2022-10-22T16:26:02.749Z,59.78
2022-10-22T16:28:30.760Z,60.02
2022-10-22T16:31:04.874Z,60.15
2022-10-22T16:33:41.419Z,58.42
2022-10-22T16:36:14.054Z,56.98
2022-10-22T16:38:42.175Z,58.78
2022-10-22T16:41:14.656Z,59.37
2022-10-22T16:43:44.749Z,60.31
2022-10-22T16:46:13.336Z,60.48
2022-10-22T16:48:49.797Z,59.33
2022-10-22T16:51:21.188Z,58.40
2022-10-22T16:53:51.885Z,59.88
2022-10-22T16:56:20.633Z,59.95
2022-10-22T16:58:52.020Z,59.98
2022-10-22T17:01:23.063Z,58.63
2022-10-22T17:03:51.134Z,60.33
2022-10-22T17:06:19.102Z,60.99
2022-10-22T17:08:48.045Z,61.71
2022-10-22T17:11:19.272Z,61.94
2022-10-22T17:13:49.366Z,62.41
2022-10-22T17:16:20.347Z,62.22
2022-10-22T17:18:48.885Z,60.56
2022-10-22T17:21:18.697Z,61.74
2022-10-22T17:23:47.275Z,63.35
2022-10-22T17:26:19.599Z,63.81
2022-10-22T17:28:48.768Z,63.07
2022-10-22T17:31:21.323Z,62.13
2022-10-22T17:33:51.754Z,62.25
2022-10-22T17:36:20.912Z,61.95
2022-10-22T17:38:50.851Z,61.00
2022-10-22T17:41:21.309Z,61.71
2022-10-22T17:43:49.326Z,63.12
2022-10-22T17:46:20.889Z,62.94
2022-10-22T17:48:51.186Z,62.54
2022-10-22T17:51:20.138Z,63.03
2022-10-22T17:53:50.713Z,62.86
2022-10-22T17:56:24.718Z,63.54
2022-10-22T17:58:53.976Z,63.94
2022-10-22T18:01:25.612Z,64.80
2022-10-22T18:03:55.242Z,64.66
2022-10-22T18:06:23.717Z,64.99
2022-10-22T18:11:27.211Z,65.02
2022-10-22T18:13:56.968Z,64.46
2022-10-22T18:16:26.148Z,64.14
2022-10-22T18:18:57.036Z,63.23
2022-10-22T18:21:27.717Z,62.90
2022-10-22T18:23:57.146Z,62.77
2022-10-22T18:26:26.936Z,62.43
2022-10-22T18:28:57.356Z,61.89
2022-10-22T18:31:27.065Z,62.00
2022-10-22T18:33:55.318Z,61.82
2022-10-22T18:36:26.259Z,62.18
2022-10-22T18:39:02.249Z,61.88
2022-10-22T18:41:32.061Z,62.05
2022-10-22T18:44:02.825Z,62.80
2022-10-22T18:46:34.643Z,62.89
2022-10-22T18:49:02.617Z,63.03
2022-10-22T18:51:31.814Z,63.28
2022-10-22T18:54:05.851Z,63.54
2022-10-22T18:56:46.493Z,64.26
2022-10-22T18:59:22.764Z,63.56
2022-10-22T19:01:52.559Z,63.58
2022-10-22T19:04:20.645Z,64.39
2022-10-22T19:06:48.610Z,64.60
2022-10-22T19:09:17.575Z,64.21
2022-10-22T19:11:45.681Z,64.23
2022-10-22T19:14:15.125Z,65.20
2022-10-22T19:16:43.033Z,65.97
2022-10-22T19:19:14.908Z,66.38
2022-10-22T19:21:42.875Z,66.27
2022-10-22T19:24:11.850Z,65.64
2022-10-22T19:26:39.843Z,64.93
2022-10-22T19:29:08.327Z,64.88
2022-10-22T19:31:37.117Z,65.57
2022-10-22T19:34:05.291Z,65.32
2022-10-22T19:36:34.494Z,65.86
2022-10-22T19:39:04.293Z,66.15
2022-10-22T19:41:33.549Z,66.25
2022-10-22T19:44:02.388Z,66.14
2022-10-22T19:46:32.842Z,66.08
2022-10-22T19:49:03.354Z,66.04
2022-10-22T19:51:33.974Z,66.15
2022-10-22T19:54:07.594Z,65.79
2022-10-22T19:56:37.635Z,65.22
2022-10-22T19:59:06.284Z,65.24
2022-10-22T20:01:34.828Z,65.40
2022-10-22T20:04:02.939Z,65.30
2022-10-22T20:06:31.108Z,65.48
2022-10-22T20:08:59.345Z,65.95
2022-10-22T20:11:29.608Z,66.04
2022-10-22T20:13:58.500Z,66.14
2022-10-22T20:16:30.052Z,65.76
2022-10-22T20:19:03.809Z,65.95
2022-10-22T20:21:32.648Z,65.66
2022-10-22T20:24:01.641Z,65.36
2022-10-22T20:26:29.815Z,65.14
2022-10-22T20:28:58.708Z,65.80
2022-10-22T20:31:28.762Z,66.03
2022-10-22T20:33:58.639Z,65.82
2022-10-22T20:36:28.042Z,65.25
2022-10-22T20:39:09.069Z,64.59
2022-10-22T20:41:39.267Z,65.10
2022-10-22T20:44:11.820Z,65.51
2022-10-22T20:46:39.886Z,66.53
2022-10-22T20:49:10.724Z,66.84
2022-10-22T20:51:38.701Z,67.20
2022-10-22T20:54:08.003Z,67.48
2022-10-22T20:56:37.974Z,68.04
2022-10-22T20:59:08.439Z,68.32
2022-10-22T21:01:42.808Z,69.34
2022-10-22T21:04:10.829Z,69.29
2022-10-22T21:06:40.608Z,69.25
2022-10-22T21:09:13.713Z,68.94
2022-10-22T21:11:43.320Z,68.80
2022-10-22T21:14:14.077Z,68.86
2022-10-22T21:16:44.694Z,69.60
2022-10-22T21:19:12.990Z,69.83
2022-10-22T21:21:41.159Z,70.53
2022-10-22T21:24:09.639Z,71.29
2022-10-22T21:26:39.346Z,71.73
2022-10-22T21:29:08.237Z,72.31
2022-10-22T21:31:37.239Z,72.49
2022-10-22T21:34:05.096Z,72.20
2022-10-22T21:36:33.206Z,72.49
2022-10-22T21:39:02.676Z,73.18
2022-10-22T21:41:30.951Z,72.86
2022-10-22T21:43:59.536Z,72.48
2022-10-22T21:46:28.530Z,72.43
2022-10-22T21:49:02.157Z,71.53
2022-10-22T21:51:32.635Z,71.76
2022-10-22T21:54:00.837Z,72.57
2022-10-22T21:56:32.858Z,72.50
2022-10-22T21:59:02.304Z,73.32
2022-10-22T22:01:30.657Z,73.44
2022-10-22T22:03:59.266Z,73.91
2022-10-22T22:06:33.152Z,74.32
2022-10-22T22:09:03.599Z,73.70
2022-10-22T22:11:32.197Z,74.30
2022-10-22T22:14:00.358Z,75.05
2022-10-22T22:16:31.710Z,76.33
2022-10-22T22:21:39.385Z,76.84
2022-10-22T22:24:10.865Z,76.42
2022-10-22T22:26:39.867Z,76.85
2022-10-22T22:29:07.849Z,76.03
2022-10-22T22:31:37.409Z,75.78
2022-10-22T22:34:10.126Z,75.88
2022-10-22T22:36:41.273Z,76.68
2022-10-22T22:39:12.414Z,76.61
2022-10-22T22:41:41.849Z,76.48
2022-10-22T22:44:10.574Z,76.50
2022-10-22T22:46:38.885Z,77.01
2022-10-22T22:49:07.773Z,77.42
2022-10-22T22:51:35.974Z,76.75
2022-10-22T22:54:03.855Z,76.72
2022-10-22T22:56:34.395Z,77.06
2022-10-22T22:59:03.758Z,77.45
2022-10-22T23:01:37.120Z,77.23
2022-10-22T23:04:13.206Z,77.13
2022-10-22T23:06:41.176Z,76.95
2022-10-22T23:09:12.036Z,77.47
2022-10-22T23:11:41.846Z,78.37
2022-10-22T23:14:12.760Z,78.71
2022-10-22T23:16:46.104Z,78.42
2022-10-22T23:19:16.686Z,77.86
2022-10-22T23:21:48.071Z,78.32
2022-10-22T23:24:18.882Z,77.81
2022-10-22T23:26:49.437Z,77.29
2022-10-22T23:29:20.954Z,77.15
2022-10-22T23:31:49.993Z,77.32
2022-10-22T23:34:20.629Z,77.17
2022-10-22T23:36:49.151Z,77.33
2022-10-22T23:39:20.429Z,76.94
2022-10-22T23:41:48.481Z,77.29
2022-10-22T23:44:16.452Z,77.71
2022-10-22T23:46:44.727Z,77.61
2022-10-22T23:49:13.751Z,77.66
2022-10-22T23:51:42.226Z,77.85
2022-10-22T23:54:15.619Z,78.02
2022-10-22T23:56:44.186Z,78.30
